Aérodrome :
LOGIN :

S'inscrire | Disclaimer

   EN    FR    IT 

 










Légende :    VFR   VFR Marginal   IFR   IFR Intensif   IFR Très Intensif
Visi : 
Plafond : 
>= 8 km
>= 3000ft
5 à 8 km
1000 à 3000 ft
1500m à 5 km
500 à 1000 ft
800 à 1500m
200 à 500 ft
< 800m
< 200 ft
Symboles :   Orages  Brouillard  Fortes neiges  Fortes précipitations  Vent > 20 kt
SIGMETs :   Divers  Orages  Givrage  Turbulence  Onde Orograph.  Cendres Volcan.






- Altitude de l'aérodrome : 464 ft
- Code IATA : EVX


LFOE - Evreux

DERNIER METAR :
  • 231430Z AUTO 24016KT 9999 OVC015 13/11 Q1023

METARs EXPIRÉS :
  • 231400Z AUTO 24017KT 9999 OVC015 13/11 Q1023
  • 231330Z AUTO 25017KT 9999 OVC015 13/10 Q1023
  • 231300Z AUTO 24019KT 9999 OVC015 13/10 Q1022
  • 231230Z AUTO 24020G31KT 9999 OVC015 13/10 Q1022
  • 231200Z AUTO 24019KT 9999 BKN015 OVC020 13/10 Q1023

TAF TAF LFOE
Valide du 22 à 15h jusqu'au 23 à 15h UTC


221400Z 2215/2315 25015G25KT 9999 OVC020
BECMG 2221/2224 BKN004 OVC010
PROB40
TEMPO 2223/2308 3000 -DZ
BECMG 2305/2307 23020G30KT
TEMPO 2314/2315 4000 -RA



MET'MAP, la Météo Aéronautique d'un coup d'oeil ! - Copyright ORBIFLY Décembre 2007 - Disclaimer

ORBIFLY MET'MAP TEAM :

Programmation & Développement : Alexandra Zaïnal
Sur une idée originale de : Baudouin d'Aumeries
Assistance à la programmation : Marc-Olivier Méhu
Soutien technique & logistique : Manuel Goepfert

Contact : metmap@orbifly.com




SOURCES & CREDITS :

   NOAA